createdAt,value
2022-10-30T00:02:26.888Z,53.13
2022-10-30T00:04:54.073Z,63.63
2022-10-30T00:07:21.177Z,67.80
2022-10-30T00:09:48.235Z,55.73
2022-10-30T00:12:15.359Z,65.23
2022-10-30T00:14:42.440Z,55.30
2022-10-30T00:17:09.530Z,84.17
2022-10-30T00:19:36.621Z,66.87
2022-10-30T00:24:30.143Z,35.47
2022-10-30T00:26:57.224Z,55.87
2022-10-30T00:29:26.271Z,58.60
2022-10-30T00:31:54.061Z,43.17
2022-10-30T00:34:21.146Z,52.83
2022-10-30T00:36:48.207Z,41.80
2022-10-30T00:39:15.296Z,49.20
2022-10-30T00:41:42.849Z,47.57
2022-10-30T00:44:28.577Z,47.00
2022-10-30T00:46:55.735Z,61.60
2022-10-30T00:49:23.142Z,81.03
2022-10-30T00:51:52.939Z,50.90
2022-10-30T00:54:20.949Z,54.50
2022-10-30T00:56:48.975Z,75.30
2022-10-30T00:59:24.272Z,59.83
2022-10-30T01:01:51.456Z,67.93
2022-10-30T01:04:18.720Z,63.90
2022-10-30T01:06:48.299Z,63.20
2022-10-30T01:09:16.143Z,47.23
2022-10-30T01:11:43.341Z,59.23
2022-10-30T01:14:11.668Z,54.30
2022-10-30T01:16:44.659Z,53.83
2022-10-30T01:19:11.723Z,45.70
2022-10-30T01:21:57.202Z,49.63
2022-10-30T01:24:47.523Z,51.40
2022-10-30T01:27:20.704Z,50.43
2022-10-30T01:30:06.137Z,82.93
2022-10-30T01:32:38.986Z,61.93
2022-10-30T01:35:09.008Z,117.27
2022-10-30T01:37:41.758Z,121.67
2022-10-30T01:40:13.572Z,128.80
2022-10-30T01:42:49.624Z,128.77
2022-10-30T01:45:25.597Z,134.83
2022-10-30T01:48:01.702Z,89.37
2022-10-30T01:50:36.941Z,92.57
2022-10-30T01:53:16.237Z,94.77
2022-10-30T01:55:49.310Z,98.57
2022-10-30T01:58:48.782Z,114.47
2022-10-30T02:01:16.364Z,62.87
2022-10-30T02:03:44.227Z,74.73
2022-10-30T02:06:11.309Z,40.17
2022-10-30T02:08:38.412Z,45.00
2022-10-30T02:11:05.673Z,51.13
2022-10-30T02:13:32.864Z,43.63
2022-10-30T02:16:00.328Z,53.07
2022-10-30T02:18:27.470Z,56.80
2022-10-30T02:20:54.587Z,51.63
2022-10-30T02:23:22.411Z,49.63
2022-10-30T02:25:49.548Z,53.43
2022-10-30T02:28:16.752Z,41.13
2022-10-30T02:30:44.170Z,41.03
2022-10-30T02:33:11.588Z,37.50
2022-10-30T02:35:38.712Z,41.00
2022-10-30T02:38:05.808Z,60.53
2022-10-30T02:40:32.985Z,32.90
2022-10-30T02:43:00.062Z,88.60
2022-10-30T02:45:27.157Z,49.97
2022-10-30T02:47:54.358Z,93.83
2022-10-30T02:50:21.901Z,39.67
2022-10-30T02:52:48.958Z,35.53
2022-10-30T02:55:16.097Z,42.53
2022-10-30T02:57:43.178Z,55.00
2022-10-30T03:00:10.555Z,56.50
2022-10-30T03:02:37.640Z,44.57
2022-10-30T03:05:04.815Z,47.77
2022-10-30T03:07:31.870Z,70.33
2022-10-30T03:09:58.928Z,88.23
2022-10-30T03:12:26.027Z,90.63
2022-10-30T03:14:53.113Z,53.80
2022-10-30T03:17:20.213Z,50.50
2022-10-30T03:19:47.299Z,55.50
2022-10-30T03:22:14.340Z,53.63
2022-10-30T03:24:41.436Z,66.50
2022-10-30T03:27:08.505Z,58.47
2022-10-30T03:29:35.569Z,54.83
2022-10-30T03:32:02.619Z,67.77
2022-10-30T03:34:29.703Z,56.63
2022-10-30T03:36:56.810Z,44.30
2022-10-30T03:39:23.925Z,65.27
2022-10-30T03:41:50.983Z,66.87
2022-10-30T03:44:18.071Z,144.57
2022-10-30T03:46:45.379Z,110.60
2022-10-30T03:49:12.464Z,126.27
2022-10-30T03:51:39.565Z,98.17
2022-10-30T03:54:06.665Z,134.20
2022-10-30T03:56:33.705Z,121.27
2022-10-30T03:59:00.864Z,133.93
2022-10-30T04:01:27.961Z,138.63
2022-10-30T04:03:55.185Z,115.77
2022-10-30T04:06:22.232Z,121.20
2022-10-30T04:08:49.364Z,119.50
2022-10-30T04:11:16.469Z,98.37
2022-10-30T04:13:43.546Z,134.57
2022-10-30T04:16:10.680Z,101.67
2022-10-30T04:18:37.794Z,157.77
2022-10-30T04:21:05.010Z,146.57
2022-10-30T04:23:32.163Z,140.57
2022-10-30T04:26:01.134Z,126.03
2022-10-30T04:28:28.264Z,78.07
2022-10-30T04:30:55.357Z,89.80
2022-10-30T04:33:22.466Z,53.53
2022-10-30T04:35:49.542Z,95.63
2022-10-30T04:38:19.616Z,100.93
2022-10-30T04:40:46.701Z,120.40
2022-10-30T04:43:14.144Z,101.27
2022-10-30T04:45:41.673Z,76.50
2022-10-30T04:48:11.239Z,106.53
2022-10-30T04:50:38.888Z,69.30
2022-10-30T04:53:16.179Z,82.97
2022-10-30T04:55:44.291Z,135.63
2022-10-30T04:58:11.731Z,91.73
2022-10-30T05:00:38.824Z,103.90
2022-10-30T05:03:05.911Z,96.23
2022-10-30T05:05:33.004Z,61.17
2022-10-30T05:08:00.457Z,92.93
2022-10-30T05:10:27.950Z,96.33
2022-10-30T05:12:55.100Z,97.33
2022-10-30T05:15:22.487Z,69.90
2022-10-30T05:17:53.797Z,69.77
2022-10-30T05:20:21.091Z,95.93
2022-10-30T05:22:54.446Z,55.27
2022-10-30T05:25:21.498Z,142.60
2022-10-30T05:27:48.654Z,110.10
2022-10-30T05:30:15.695Z,136.30
2022-10-30T05:32:42.764Z,202.50
2022-10-30T05:35:09.952Z,233.57
2022-10-30T05:37:37.194Z,268.80
2022-10-30T05:40:04.435Z,129.43
2022-10-30T05:42:31.521Z,188.60
2022-10-30T05:45:01.258Z,259.23
2022-10-30T05:47:29.045Z,197.17
2022-10-30T05:49:56.096Z,162.17
2022-10-30T05:52:23.176Z,189.93
2022-10-30T05:54:50.244Z,332.40
2022-10-30T05:57:17.313Z,288.57
2022-10-30T05:59:44.352Z,272.87
2022-10-30T06:02:11.462Z,233.47
2022-10-30T06:04:38.559Z,215.00
2022-10-30T06:07:05.714Z,253.30
2022-10-30T06:09:32.755Z,223.00
2022-10-30T06:11:59.875Z,297.87
2022-10-30T06:14:26.933Z,381.83
2022-10-30T06:16:53.966Z,271.37
2022-10-30T06:19:21.096Z,433.73
2022-10-30T06:21:48.206Z,307.73
2022-10-30T06:24:15.317Z,318.80
2022-10-30T06:26:42.376Z,297.87
2022-10-30T06:29:09.443Z,384.57
2022-10-30T06:31:36.510Z,346.93
2022-10-30T06:34:03.582Z,355.93
2022-10-30T06:36:30.631Z,274.63
2022-10-30T06:38:57.699Z,135.00
2022-10-30T06:41:29.110Z,192.77
2022-10-30T06:43:57.353Z,259.60
2022-10-30T06:46:27.371Z,123.00
2022-10-30T06:48:57.853Z,152.97
2022-10-30T06:51:25.126Z,129.10
2022-10-30T06:53:52.192Z,160.60
2022-10-30T06:56:19.249Z,209.13
2022-10-30T06:58:46.291Z,256.77
2022-10-30T07:01:13.564Z,276.90
2022-10-30T07:03:40.694Z,383.07
2022-10-30T07:06:08.125Z,408.97
2022-10-30T07:08:35.209Z,403.20
2022-10-30T07:11:02.318Z,466.63
2022-10-30T07:13:29.364Z,394.33
2022-10-30T07:15:56.442Z,442.27
2022-10-30T07:18:23.554Z,426.30
2022-10-30T07:20:55.015Z,260.37
2022-10-30T07:23:22.132Z,148.13
2022-10-30T07:25:49.244Z,340.97
2022-10-30T07:28:16.440Z,594.33
2022-10-30T07:30:43.488Z,538.87
2022-10-30T07:33:10.823Z,454.67
2022-10-30T07:35:37.931Z,67.80
2022-10-30T07:38:05.007Z,212.20
2022-10-30T07:40:32.509Z,94.23
2022-10-30T07:43:01.447Z,136.17
2022-10-30T07:45:29.096Z,264.07
2022-10-30T07:47:56.893Z,115.93
2022-10-30T07:50:24.633Z,157.47
2022-10-30T07:52:51.719Z,158.13
2022-10-30T07:55:18.883Z,153.47
2022-10-30T07:57:45.948Z,178.40
2022-10-30T08:00:14.177Z,110.27
2022-10-30T08:02:41.662Z,161.60
2022-10-30T08:05:09.559Z,135.57
2022-10-30T08:07:37.590Z,161.00
2022-10-30T08:10:05.149Z,168.13
2022-10-30T08:12:33.685Z,72.23
2022-10-30T08:15:00.761Z,126.90
2022-10-30T08:17:27.934Z,78.93
2022-10-30T08:19:55.458Z,57.57
2022-10-30T08:22:22.591Z,107.97
2022-10-30T08:24:49.679Z,72.63
2022-10-30T08:27:16.828Z,70.03
2022-10-30T08:29:43.995Z,70.00
2022-10-30T08:32:11.051Z,44.53
2022-10-30T08:34:38.094Z,41.67
2022-10-30T08:37:05.700Z,62.00
2022-10-30T08:39:32.772Z,53.53
2022-10-30T08:42:00.215Z,131.37
2022-10-30T08:44:27.347Z,173.37
2022-10-30T08:46:54.439Z,85.47
2022-10-30T08:49:21.516Z,43.20
2022-10-30T08:51:48.628Z,30.90
2022-10-30T08:54:15.697Z,57.50
2022-10-30T08:56:42.743Z,30.23
2022-10-30T08:59:09.797Z,85.43
2022-10-30T09:01:37.016Z,93.10
2022-10-30T09:04:04.286Z,56.47
2022-10-30T09:06:32.013Z,60.23
2022-10-30T09:08:59.094Z,42.67
2022-10-30T09:11:26.382Z,52.17
2022-10-30T09:13:53.423Z,57.23
2022-10-30T09:16:20.632Z,44.00
2022-10-30T09:18:47.697Z,101.23
2022-10-30T09:21:14.784Z,30.17
2022-10-30T09:23:43.499Z,219.40
2022-10-30T09:26:10.982Z,28.50
2022-10-30T09:28:38.264Z,46.53
2022-10-30T09:31:05.552Z,50.40
2022-10-30T09:33:32.697Z,35.43
2022-10-30T09:35:59.885Z,40.50
2022-10-30T09:38:27.011Z,72.30
2022-10-30T09:41:11.852Z,271.20
2022-10-30T09:43:42.016Z,95.43
2022-10-30T09:46:11.895Z,40.93
2022-10-30T09:48:38.918Z,29.07
2022-10-30T09:51:15.027Z,37.93
2022-10-30T09:53:51.192Z,42.00
2022-10-30T09:56:18.243Z,98.30
2022-10-30T09:58:51.889Z,22.40
2022-10-30T10:01:23.777Z,57.70
2022-10-30T10:03:54.086Z,42.63
2022-10-30T10:06:21.692Z,29.93
2022-10-30T10:08:53.460Z,54.80
2022-10-30T10:11:23.938Z,22.97
2022-10-30T10:14:03.122Z,27.47
2022-10-30T10:16:32.175Z,19.17
2022-10-30T10:19:03.432Z,22.93
2022-10-30T10:21:31.977Z,50.80
2022-10-30T10:24:04.259Z,39.70
2022-10-30T10:26:36.853Z,88.23
2022-10-30T10:29:20.476Z,95.83
2022-10-30T10:31:50.596Z,79.47
2022-10-30T10:34:29.927Z,28.00
2022-10-30T10:37:06.508Z,53.87
2022-10-30T10:39:39.487Z,12.37
2022-10-30T10:42:21.840Z,10.57
2022-10-30T10:44:48.977Z,11.75
2022-10-30T10:47:37.601Z,11.25
2022-10-30T10:50:04.763Z,10.73
2022-10-30T10:52:40.167Z,17.13
2022-10-30T10:55:27.609Z,18.15
2022-10-30T10:57:55.986Z,18.50
2022-10-30T11:00:24.415Z,12.20
2022-10-30T11:02:52.146Z,11.45
2022-10-30T11:05:27.098Z,11.10
2022-10-30T11:07:54.802Z,8.82
2022-10-30T11:10:23.645Z,9.50
2022-10-30T11:12:50.736Z,9.75
2022-10-30T11:15:23.119Z,8.55
2022-10-30T11:17:58.926Z,10.32
2022-10-30T11:20:29.811Z,9.38
2022-10-30T11:22:57.165Z,9.82
2022-10-30T11:25:30.231Z,8.93
2022-10-30T11:28:00.274Z,8.50
2022-10-30T11:30:28.988Z,10.27
2022-10-30T11:32:57.288Z,8.52
2022-10-30T11:35:25.138Z,8.48
2022-10-30T11:37:53.335Z,11.35
2022-10-30T11:40:21.929Z,9.32
2022-10-30T11:42:49.004Z,9.55
2022-10-30T11:45:28.341Z,10.07
2022-10-30T11:48:01.058Z,10.90
2022-10-30T11:50:30.830Z,12.68
2022-10-30T11:53:00.391Z,10.68
2022-10-30T11:55:39.309Z,12.18
2022-10-30T11:58:09.869Z,13.00
2022-10-30T12:00:37.567Z,9.85
2022-10-30T12:03:04.650Z,11.73
2022-10-30T12:05:34.256Z,10.93
2022-10-30T12:08:07.163Z,11.52
2022-10-30T12:10:46.061Z,12.75
2022-10-30T12:13:17.921Z,11.05
2022-10-30T12:15:45.950Z,13.25
2022-10-30T12:18:26.175Z,11.32
2022-10-30T12:20:56.610Z,12.48
2022-10-30T12:23:25.876Z,14.98
2022-10-30T12:25:54.478Z,14.20
2022-10-30T12:28:22.905Z,20.83
2022-10-30T12:30:52.891Z,19.73
2022-10-30T12:33:38.788Z,15.55
2022-10-30T12:36:17.623Z,16.20
2022-10-30T12:38:46.998Z,14.02
2022-10-30T12:41:32.624Z,13.20
2022-10-30T12:44:03.174Z,16.13
2022-10-30T12:46:43.134Z,16.58
2022-10-30T12:49:10.221Z,17.90
2022-10-30T12:51:46.691Z,14.00
2022-10-30T12:54:16.837Z,16.50
2022-10-30T12:56:45.985Z,18.17
2022-10-30T12:59:34.082Z,15.43
2022-10-30T13:02:05.607Z,16.40
2022-10-30T13:04:45.546Z,17.10
2022-10-30T13:07:32.655Z,13.98
2022-10-30T13:10:18.347Z,15.90
2022-10-30T13:12:47.465Z,14.38
2022-10-30T13:15:14.530Z,16.38
2022-10-30T13:17:41.636Z,17.13
2022-10-30T13:20:13.354Z,13.25
2022-10-30T13:22:46.217Z,17.02
2022-10-30T13:25:16.103Z,15.32
2022-10-30T13:27:49.179Z,14.93
2022-10-30T13:30:18.100Z,15.48
2022-10-30T13:32:54.083Z,15.55
2022-10-30T13:35:56.863Z,16.30
2022-10-30T13:38:42.721Z,16.02
2022-10-30T13:41:09.795Z,16.10
2022-10-30T13:43:46.019Z,17.17
2022-10-30T13:46:13.073Z,15.70
2022-10-30T13:48:43.264Z,17.52
2022-10-30T13:51:27.160Z,16.98
2022-10-30T13:54:03.661Z,14.95
2022-10-30T13:56:31.029Z,14.43
2022-10-30T13:59:00.127Z,17.20
2022-10-30T14:01:35.358Z,12.05
2022-10-30T14:04:13.563Z,18.17
2022-10-30T14:06:43.417Z,16.50
2022-10-30T14:09:20.024Z,19.02
2022-10-30T14:11:47.222Z,16.05
2022-10-30T14:14:14.301Z,17.10
2022-10-30T14:16:41.436Z,16.70
2022-10-30T14:19:08.660Z,14.77
2022-10-30T14:21:38.907Z,16.25
2022-10-30T14:24:11.603Z,17.45
2022-10-30T14:26:39.677Z,15.82
2022-10-30T14:29:25.607Z,15.32
2022-10-30T14:31:52.859Z,18.13
2022-10-30T14:34:38.779Z,20.17
2022-10-30T14:37:05.841Z,15.45
2022-10-30T14:39:38.801Z,14.48
2022-10-30T14:42:05.977Z,14.70
2022-10-30T14:44:48.374Z,19.20
2022-10-30T14:47:21.542Z,16.15
2022-10-30T14:49:50.688Z,20.33
2022-10-30T14:52:20.765Z,16.55
2022-10-30T14:54:55.517Z,14.13
2022-10-30T14:57:23.679Z,17.98
2022-10-30T15:00:10.757Z,18.88
2022-10-30T15:02:41.691Z,17.90
2022-10-30T15:05:09.842Z,16.40
2022-10-30T15:07:54.791Z,17.40
2022-10-30T15:10:35.183Z,16.40
2022-10-30T15:13:14.142Z,14.93
2022-10-30T15:15:41.233Z,17.27
2022-10-30T15:18:09.446Z,20.38
2022-10-30T15:20:38.002Z,22.75
2022-10-30T15:23:07.556Z,28.95
2022-10-30T15:25:36.308Z,40.78
2022-10-30T15:28:04.048Z,46.45
2022-10-30T15:30:31.142Z,56.92
2022-10-30T15:32:58.722Z,63.17
2022-10-30T15:35:27.586Z,33.67
2022-10-30T15:38:07.725Z,43.03
2022-10-30T15:40:35.719Z,62.47
2022-10-30T15:43:03.505Z,69.23
2022-10-30T15:45:30.544Z,49.57
2022-10-30T15:48:18.608Z,38.17
2022-10-30T15:50:46.695Z,35.93
2022-10-30T15:53:20.371Z,35.83
2022-10-30T15:55:48.694Z,31.83
2022-10-30T15:58:18.143Z,38.17
2022-10-30T16:00:55.698Z,31.47
2022-10-30T16:03:22.920Z,34.87
2022-10-30T16:05:50.051Z,28.37
2022-10-30T16:08:21.295Z,33.10
2022-10-30T16:10:49.243Z,23.00
2022-10-30T16:13:36.027Z,28.23
2022-10-30T16:16:03.774Z,23.23
2022-10-30T16:18:32.281Z,25.00
2022-10-30T16:21:03.815Z,23.83
2022-10-30T16:23:31.207Z,25.83
2022-10-30T16:25:59.084Z,23.57
2022-10-30T16:28:31.042Z,25.30
2022-10-30T16:30:59.923Z,33.93
2022-10-30T16:33:28.386Z,35.07
2022-10-30T16:35:56.254Z,29.83
2022-10-30T16:38:24.566Z,29.10
2022-10-30T16:40:52.019Z,24.73
2022-10-30T16:43:27.252Z,24.97
2022-10-30T16:45:54.594Z,24.03
2022-10-30T16:48:30.047Z,29.80
2022-10-30T16:51:01.483Z,26.27
2022-10-30T16:53:28.959Z,28.37
2022-10-30T16:55:57.101Z,23.97
2022-10-30T16:58:25.833Z,26.47
2022-10-30T17:00:57.532Z,28.13
2022-10-30T17:03:28.121Z,22.77
2022-10-30T17:06:05.552Z,28.67
2022-10-30T17:08:37.036Z,23.57
2022-10-30T17:11:05.926Z,27.10
2022-10-30T17:13:37.390Z,25.17
2022-10-30T17:16:21.701Z,23.33
2022-10-30T17:18:52.174Z,26.63
2022-10-30T17:21:22.203Z,27.43
2022-10-30T17:23:53.106Z,37.80
2022-10-30T17:26:20.166Z,36.33
2022-10-30T17:28:47.398Z,37.10
2022-10-30T17:31:29.653Z,40.67
2022-10-30T17:34:32.158Z,38.97
2022-10-30T17:36:59.778Z,31.53
2022-10-30T17:39:26.864Z,32.13
2022-10-30T17:41:56.723Z,28.87
2022-10-30T17:44:24.879Z,34.30
2022-10-30T17:46:52.660Z,32.00
2022-10-30T17:49:29.605Z,32.20
2022-10-30T17:51:57.209Z,29.00
2022-10-30T17:54:24.308Z,37.60
2022-10-30T17:56:52.611Z,30.23
2022-10-30T17:59:19.706Z,31.07
2022-10-30T18:01:48.869Z,27.77
2022-10-30T18:04:20.487Z,33.03
2022-10-30T18:06:48.628Z,32.90
2022-10-30T18:09:15.950Z,30.67
2022-10-30T18:11:43.040Z,29.23
2022-10-30T18:14:11.233Z,32.20
2022-10-30T18:16:38.327Z,34.47
2022-10-30T18:19:05.417Z,26.50
2022-10-30T18:21:32.450Z,25.20
2022-10-30T18:23:59.543Z,27.80
2022-10-30T18:26:27.328Z,34.60
2022-10-30T18:28:54.685Z,36.17
2022-10-30T18:31:23.775Z,41.27
2022-10-30T18:33:51.273Z,41.77
2022-10-30T18:36:22.774Z,36.47
2022-10-30T18:38:49.875Z,38.20
2022-10-30T18:41:21.133Z,38.30
2022-10-30T18:43:48.233Z,39.97
2022-10-30T18:46:16.499Z,40.17
2022-10-30T18:48:44.135Z,37.97
2022-10-30T18:51:15.458Z,45.40
2022-10-30T18:53:42.562Z,39.37
2022-10-30T18:56:10.699Z,47.50
2022-10-30T18:58:37.749Z,57.53
2022-10-30T19:01:12.913Z,55.27
2022-10-30T19:03:40.252Z,53.50
2022-10-30T19:06:10.449Z,89.13
2022-10-30T19:08:37.543Z,81.30
2022-10-30T19:11:04.783Z,75.67
2022-10-30T19:13:32.224Z,260.53
2022-10-30T19:16:02.687Z,133.93
2022-10-30T19:18:31.863Z,106.03
2022-10-30T19:21:04.312Z,92.67
2022-10-30T19:23:33.480Z,99.40
2022-10-30T19:26:00.650Z,80.07
2022-10-30T19:28:29.095Z,67.00
2022-10-30T19:30:56.157Z,60.37
2022-10-30T19:33:23.661Z,60.33
2022-10-30T19:35:57.916Z,55.30
2022-10-30T19:38:25.070Z,57.27
2022-10-30T19:40:52.395Z,48.77
2022-10-30T19:43:19.647Z,53.07
2022-10-30T19:45:49.077Z,49.90
2022-10-30T19:48:40.690Z,482.70
2022-10-30T19:51:09.275Z,55.77
2022-10-30T19:53:36.329Z,55.53
2022-10-30T19:56:03.870Z,347.83
2022-10-30T19:58:32.048Z,48.40
2022-10-30T20:00:59.135Z,50.87
2022-10-30T20:03:26.229Z,55.90
2022-10-30T20:05:54.184Z,59.30
2022-10-30T20:08:25.607Z,54.03
2022-10-30T20:10:53.697Z,54.87
2022-10-30T20:13:22.751Z,73.97
2022-10-30T20:15:50.175Z,69.67
2022-10-30T20:18:21.476Z,67.10
2022-10-30T20:20:50.193Z,63.73
2022-10-30T20:23:17.384Z,57.60
2022-10-30T20:25:44.923Z,59.23
2022-10-30T20:28:16.639Z,60.83
2022-10-30T20:30:43.739Z,59.10
2022-10-30T20:33:12.488Z,52.57
2022-10-30T20:35:39.669Z,59.07
2022-10-30T20:38:06.994Z,46.93
2022-10-30T20:40:34.194Z,51.10
2022-10-30T20:43:03.062Z,48.50
2022-10-30T20:45:30.529Z,52.23
2022-10-30T20:47:57.917Z,51.53
2022-10-30T20:50:25.228Z,54.67
2022-10-30T20:52:53.600Z,54.17
2022-10-30T20:55:20.900Z,45.70
2022-10-30T20:57:48.039Z,59.93
2022-10-30T21:00:15.334Z,59.10
2022-10-30T21:02:42.507Z,51.80
2022-10-30T21:05:12.041Z,53.53
2022-10-30T21:07:50.781Z,49.97
2022-10-30T21:10:17.995Z,45.90
2022-10-30T21:12:45.222Z,45.13
2022-10-30T21:15:12.329Z,45.87
2022-10-30T21:17:39.425Z,50.70
2022-10-30T21:20:06.774Z,45.60
2022-10-30T21:22:33.873Z,46.83
2022-10-30T21:25:01.016Z,70.17
2022-10-30T21:27:28.140Z,66.57
2022-10-30T21:29:55.218Z,89.60
2022-10-30T21:32:22.352Z,61.40
2022-10-30T21:34:49.432Z,118.53
2022-10-30T21:37:16.516Z,95.57
2022-10-30T21:39:43.596Z,235.30
2022-10-30T21:42:10.632Z,95.50
2022-10-30T21:44:37.720Z,135.00
2022-10-30T21:47:05.515Z,175.33
2022-10-30T21:49:32.583Z,227.63
2022-10-30T21:51:59.703Z,102.47
2022-10-30T21:54:26.799Z,79.57
2022-10-30T21:56:55.125Z,162.43
2022-10-30T21:59:22.178Z,215.47
2022-10-30T22:01:49.309Z,263.93
2022-10-30T22:04:16.550Z,187.77
2022-10-30T22:06:44.512Z,126.13
2022-10-30T22:09:14.546Z,135.70
2022-10-30T22:11:41.597Z,151.60
2022-10-30T22:14:08.706Z,172.13
2022-10-30T22:16:37.129Z,101.33
2022-10-30T22:19:05.632Z,144.80
2022-10-30T22:21:32.776Z,80.33
2022-10-30T22:24:03.587Z,78.97
2022-10-30T22:26:31.090Z,65.50
2022-10-30T22:28:58.959Z,50.13
2022-10-30T22:31:27.211Z,43.47
2022-10-30T22:33:54.319Z,28.40
2022-10-30T22:36:21.391Z,31.47
2022-10-30T22:38:49.451Z,50.13
2022-10-30T22:41:21.341Z,80.53
2022-10-30T22:43:49.134Z,90.47
2022-10-30T22:46:17.383Z,71.60
2022-10-30T22:48:45.104Z,145.47
2022-10-30T22:51:15.343Z,90.43
2022-10-30T22:53:44.083Z,88.10
2022-10-30T22:56:15.353Z,77.30
2022-10-30T22:58:42.491Z,96.00
2022-10-30T23:01:10.299Z,68.07
2022-10-30T23:03:37.414Z,76.00
2022-10-30T23:06:04.621Z,63.60
2022-10-30T23:08:31.792Z,63.87
2022-10-30T23:10:58.993Z,70.90
2022-10-30T23:13:26.185Z,46.80
2022-10-30T23:15:56.228Z,56.30
2022-10-30T23:18:26.085Z,43.20
2022-10-30T23:20:53.130Z,54.67
2022-10-30T23:23:20.209Z,52.37
2022-10-30T23:25:47.297Z,68.90
2022-10-30T23:28:14.368Z,57.23
2022-10-30T23:30:42.490Z,79.47
2022-10-30T23:33:10.139Z,63.00
2022-10-30T23:35:37.245Z,50.03
2022-10-30T23:38:04.766Z,70.53
2022-10-30T23:40:32.022Z,57.37
2022-10-30T23:42:59.399Z,81.90
2022-10-30T23:45:26.675Z,40.30
2022-10-30T23:47:53.758Z,42.57
2022-10-30T23:50:20.801Z,33.70
2022-10-30T23:52:47.873Z,47.73
2022-10-30T23:55:14.971Z,60.77
2022-10-30T23:57:42.050Z,52.57
